sensor_id;sensor_type;location;lat;lon;timestamp;P1;durP1;ratioP1;P2;durP2;ratioP2
48018;SDS011;33786;48.690;9.562;2024-02-26T00:02:07;4.40;;;2.40;;
48018;SDS011;33786;48.690;9.562;2024-02-26T00:04:34;4.00;;;2.35;;
48018;SDS011;33786;48.690;9.562;2024-02-26T00:07:01;5.00;;;2.55;;
48018;SDS011;33786;48.690;9.562;2024-02-26T00:09:28;4.50;;;2.72;;
48018;SDS011;33786;48.690;9.562;2024-02-26T00:11:56;3.97;;;2.33;;
48018;SDS011;33786;48.690;9.562;2024-02-26T00:14:24;3.97;;;2.42;;
48018;SDS011;33786;48.690;9.562;2024-02-26T00:16:51;2.08;;;1.70;;
48018;SDS011;33786;48.690;9.562;2024-02-26T00:19:18;3.58;;;2.08;;
48018;SDS011;33786;48.690;9.562;2024-02-26T00:21:45;4.32;;;2.20;;
48018;SDS011;33786;48.690;9.562;2024-02-26T00:24:12;3.95;;;2.28;;
48018;SDS011;33786;48.690;9.562;2024-02-26T00:26:39;3.50;;;2.17;;
48018;SDS011;33786;48.690;9.562;2024-02-26T00:29:05;5.70;;;2.88;;
48018;SDS011;33786;48.690;9.562;2024-02-26T00:31:32;4.88;;;2.63;;
48018;SDS011;33786;48.690;9.562;2024-02-26T00:33:59;4.40;;;2.50;;
48018;SDS011;33786;48.690;9.562;2024-02-26T00:36:27;3.97;;;2.50;;
48018;SDS011;33786;48.690;9.562;2024-02-26T00:38:53;4.40;;;2.40;;
48018;SDS011;33786;48.690;9.562;2024-02-26T00:41:20;5.05;;;3.17;;
48018;SDS011;33786;48.690;9.562;2024-02-26T00:43:47;4.10;;;2.40;;
48018;SDS011;33786;48.690;9.562;2024-02-26T00:46:14;3.58;;;2.53;;
48018;SDS011;33786;48.690;9.562;2024-02-26T00:48:41;4.47;;;2.67;;
48018;SDS011;33786;48.690;9.562;2024-02-26T00:51:08;5.57;;;2.42;;
48018;SDS011;33786;48.690;9.562;2024-02-26T00:53:35;4.38;;;2.28;;
48018;SDS011;33786;48.690;9.562;2024-02-26T00:56:02;4.35;;;2.30;;
48018;SDS011;33786;48.690;9.562;2024-02-26T00:58:29;3.67;;;2.13;;
48018;SDS011;33786;48.690;9.562;2024-02-26T01:00:55;4.22;;;2.25;;
48018;SDS011;33786;48.690;9.562;2024-02-26T01:03:22;4.13;;;2.25;;
48018;SDS011;33786;48.690;9.562;2024-02-26T01:05:49;3.03;;;2.20;;
48018;SDS011;33786;48.690;9.562;2024-02-26T01:08:18;3.95;;;2.33;;
48018;SDS011;33786;48.690;9.562;2024-02-26T01:10:45;3.55;;;2.35;;
48018;SDS011;33786;48.690;9.562;2024-02-26T01:13:12;4.13;;;2.38;;
48018;SDS011;33786;48.690;9.562;2024-02-26T01:15:39;2.40;;;1.70;;
48018;SDS011;33786;48.690;9.562;2024-02-26T01:18:05;3.90;;;2.30;;
48018;SDS011;33786;48.690;9.562;2024-02-26T01:20:32;4.57;;;2.13;;
48018;SDS011;33786;48.690;9.562;2024-02-26T01:22:59;3.88;;;2.42;;
48018;SDS011;33786;48.690;9.562;2024-02-26T01:25:26;3.33;;;2.20;;
48018;SDS011;33786;48.690;9.562;2024-02-26T01:27:53;3.78;;;2.10;;
48018;SDS011;33786;48.690;9.562;2024-02-26T01:30:20;3.20;;;2.30;;
48018;SDS011;33786;48.690;9.562;2024-02-26T01:32:47;4.15;;;2.42;;
48018;SDS011;33786;48.690;9.562;2024-02-26T01:35:14;4.47;;;2.65;;
48018;SDS011;33786;48.690;9.562;2024-02-26T01:37:41;2.72;;;2.08;;
48018;SDS011;33786;48.690;9.562;2024-02-26T01:40:08;4.43;;;2.72;;
48018;SDS011;33786;48.690;9.562;2024-02-26T01:42:37;3.92;;;2.55;;
48018;SDS011;33786;48.690;9.562;2024-02-26T01:45:05;3.80;;;2.50;;
48018;SDS011;33786;48.690;9.562;2024-02-26T01:47:33;4.00;;;2.53;;
48018;SDS011;33786;48.690;9.562;2024-02-26T01:50:00;3.83;;;2.25;;
48018;SDS011;33786;48.690;9.562;2024-02-26T01:52:27;8.70;;;2.80;;
48018;SDS011;33786;48.690;9.562;2024-02-26T01:54:54;6.20;;;3.30;;
48018;SDS011;33786;48.690;9.562;2024-02-26T01:57:21;4.85;;;2.75;;
48018;SDS011;33786;48.690;9.562;2024-02-26T01:59:48;4.40;;;2.53;;
48018;SDS011;33786;48.690;9.562;2024-02-26T02:02:15;4.82;;;2.58;;
48018;SDS011;33786;48.690;9.562;2024-02-26T02:04:42;3.88;;;2.60;;
48018;SDS011;33786;48.690;9.562;2024-02-26T02:07:09;4.20;;;2.38;;
48018;SDS011;33786;48.690;9.562;2024-02-26T02:09:36;5.75;;;3.58;;
48018;SDS011;33786;48.690;9.562;2024-02-26T02:12:03;6.57;;;2.42;;
48018;SDS011;33786;48.690;9.562;2024-02-26T02:14:32;3.65;;;2.58;;
48018;SDS011;33786;48.690;9.562;2024-02-26T02:16:59;4.47;;;2.50;;
48018;SDS011;33786;48.690;9.562;2024-02-26T02:19:26;4.55;;;2.67;;
48018;SDS011;33786;48.690;9.562;2024-02-26T02:21:52;4.40;;;2.78;;
48018;SDS011;33786;48.690;9.562;2024-02-26T02:24:19;3.75;;;2.22;;
48018;SDS011;33786;48.690;9.562;2024-02-26T02:26:46;3.75;;;2.30;;
48018;SDS011;33786;48.690;9.562;2024-02-26T02:29:13;4.80;;;2.55;;
48018;SDS011;33786;48.690;9.562;2024-02-26T02:31:41;3.92;;;2.47;;
48018;SDS011;33786;48.690;9.562;2024-02-26T02:34:09;5.30;;;2.97;;
48018;SDS011;33786;48.690;9.562;2024-02-26T02:36:47;4.65;;;2.63;;
48018;SDS011;33786;48.690;9.562;2024-02-26T02:39:15;3.70;;;2.33;;
48018;SDS011;33786;48.690;9.562;2024-02-26T02:41:42;5.40;;;2.80;;
48018;SDS011;33786;48.690;9.562;2024-02-26T02:44:09;4.03;;;2.65;;
48018;SDS011;33786;48.690;9.562;2024-02-26T02:46:36;5.88;;;2.72;;
48018;SDS011;33786;48.690;9.562;2024-02-26T02:49:03;5.60;;;2.83;;
48018;SDS011;33786;48.690;9.562;2024-02-26T02:51:30;8.38;;;3.15;;
48018;SDS011;33786;48.690;9.562;2024-02-26T02:53:57;4.85;;;2.75;;
48018;SDS011;33786;48.690;9.562;2024-02-26T02:56:24;3.90;;;2.47;;
48018;SDS011;33786;48.690;9.562;2024-02-26T02:58:50;4.60;;;2.75;;
48018;SDS011;33786;48.690;9.562;2024-02-26T03:01:17;4.22;;;2.70;;
48018;SDS011;33786;48.690;9.562;2024-02-26T03:03:44;4.50;;;2.70;;
48018;SDS011;33786;48.690;9.562;2024-02-26T03:06:11;4.07;;;2.75;;
48018;SDS011;33786;48.690;9.562;2024-02-26T03:08:38;4.45;;;2.80;;
48018;SDS011;33786;48.690;9.562;2024-02-26T03:11:05;4.68;;;2.60;;
48018;SDS011;33786;48.690;9.562;2024-02-26T03:13:32;4.82;;;3.08;;
48018;SDS011;33786;48.690;9.562;2024-02-26T03:16:04;6.18;;;3.28;;
48018;SDS011;33786;48.690;9.562;2024-02-26T03:18:32;4.22;;;2.67;;
48018;SDS011;33786;48.690;9.562;2024-02-26T03:20:59;4.35;;;2.70;;
48018;SDS011;33786;48.690;9.562;2024-02-26T03:23:25;4.80;;;2.88;;
48018;SDS011;33786;48.690;9.562;2024-02-26T03:25:52;4.15;;;2.85;;
48018;SDS011;33786;48.690;9.562;2024-02-26T03:28:19;5.93;;;3.33;;
48018;SDS011;33786;48.690;9.562;2024-02-26T03:30:46;7.68;;;3.10;;
48018;SDS011;33786;48.690;9.562;2024-02-26T03:33:13;4.70;;;2.78;;
48018;SDS011;33786;48.690;9.562;2024-02-26T03:35:40;5.60;;;3.95;;
48018;SDS011;33786;48.690;9.562;2024-02-26T03:38:06;5.35;;;3.85;;
48018;SDS011;33786;48.690;9.562;2024-02-26T03:40:33;5.43;;;3.25;;
48018;SDS011;33786;48.690;9.562;2024-02-26T03:43:00;3.72;;;3.03;;
48018;SDS011;33786;48.690;9.562;2024-02-26T03:45:27;5.68;;;2.95;;
48018;SDS011;33786;48.690;9.562;2024-02-26T03:47:54;5.10;;;3.25;;
48018;SDS011;33786;48.690;9.562;2024-02-26T03:50:21;4.18;;;2.92;;
48018;SDS011;33786;48.690;9.562;2024-02-26T03:52:48;5.88;;;2.95;;
48018;SDS011;33786;48.690;9.562;2024-02-26T03:55:14;5.70;;;3.40;;
48018;SDS011;33786;48.690;9.562;2024-02-26T03:57:41;4.95;;;2.97;;
48018;SDS011;33786;48.690;9.562;2024-02-26T04:00:08;6.85;;;3.25;;
48018;SDS011;33786;48.690;9.562;2024-02-26T04:02:35;5.68;;;2.55;;
48018;SDS011;33786;48.690;9.562;2024-02-26T04:05:02;5.15;;;3.45;;
48018;SDS011;33786;48.690;9.562;2024-02-26T04:07:29;4.15;;;2.83;;
48018;SDS011;33786;48.690;9.562;2024-02-26T04:09:56;5.25;;;3.47;;
48018;SDS011;33786;48.690;9.562;2024-02-26T04:12:23;3.60;;;2.90;;
48018;SDS011;33786;48.690;9.562;2024-02-26T04:14:50;5.28;;;2.85;;
48018;SDS011;33786;48.690;9.562;2024-02-26T04:17:16;4.68;;;2.97;;
48018;SDS011;33786;48.690;9.562;2024-02-26T04:19:43;6.75;;;3.55;;
48018;SDS011;33786;48.690;9.562;2024-02-26T04:22:10;4.32;;;2.80;;
48018;SDS011;33786;48.690;9.562;2024-02-26T04:24:37;5.75;;;4.07;;
48018;SDS011;33786;48.690;9.562;2024-02-26T04:27:04;8.00;;;4.70;;
48018;SDS011;33786;48.690;9.562;2024-02-26T04:29:31;6.05;;;3.60;;
48018;SDS011;33786;48.690;9.562;2024-02-26T04:31:57;6.85;;;3.85;;
48018;SDS011;33786;48.690;9.562;2024-02-26T04:34:24;4.53;;;2.83;;
48018;SDS011;33786;48.690;9.562;2024-02-26T04:36:51;6.38;;;3.00;;
48018;SDS011;33786;48.690;9.562;2024-02-26T04:39:18;3.95;;;2.67;;
48018;SDS011;33786;48.690;9.562;2024-02-26T04:41:45;4.47;;;2.95;;
48018;SDS011;33786;48.690;9.562;2024-02-26T04:44:12;5.88;;;3.42;;
48018;SDS011;33786;48.690;9.562;2024-02-26T04:46:39;6.75;;;3.60;;
48018;SDS011;33786;48.690;9.562;2024-02-26T04:49:06;5.50;;;2.83;;
48018;SDS011;33786;48.690;9.562;2024-02-26T04:51:33;4.88;;;3.25;;
48018;SDS011;33786;48.690;9.562;2024-02-26T04:53:59;9.18;;;4.50;;
48018;SDS011;33786;48.690;9.562;2024-02-26T04:56:26;7.38;;;3.00;;
48018;SDS011;33786;48.690;9.562;2024-02-26T04:58:53;5.38;;;3.15;;
48018;SDS011;33786;48.690;9.562;2024-02-26T05:01:20;5.78;;;3.58;;
48018;SDS011;33786;48.690;9.562;2024-02-26T05:03:47;5.53;;;3.35;;
48018;SDS011;33786;48.690;9.562;2024-02-26T05:06:14;4.75;;;3.17;;
48018;SDS011;33786;48.690;9.562;2024-02-26T05:08:41;4.22;;;2.63;;
48018;SDS011;33786;48.690;9.562;2024-02-26T05:11:10;4.15;;;2.90;;
48018;SDS011;33786;48.690;9.562;2024-02-26T05:13:37;9.38;;;5.68;;
48018;SDS011;33786;48.690;9.562;2024-02-26T05:16:03;6.55;;;4.45;;
48018;SDS011;33786;48.690;9.562;2024-02-26T05:18:30;6.78;;;4.47;;
48018;SDS011;33786;48.690;9.562;2024-02-26T05:20:58;6.32;;;3.42;;
48018;SDS011;33786;48.690;9.562;2024-02-26T05:23:25;6.35;;;4.10;;
48018;SDS011;33786;48.690;9.562;2024-02-26T05:25:52;5.70;;;3.50;;
48018;SDS011;33786;48.690;9.562;2024-02-26T05:28:19;5.43;;;3.63;;
48018;SDS011;33786;48.690;9.562;2024-02-26T05:30:47;5.97;;;3.45;;
48018;SDS011;33786;48.690;9.562;2024-02-26T05:33:14;5.93;;;3.40;;
48018;SDS011;33786;48.690;9.562;2024-02-26T05:35:44;8.30;;;3.63;;
48018;SDS011;33786;48.690;9.562;2024-02-26T05:38:11;5.25;;;3.10;;
48018;SDS011;33786;48.690;9.562;2024-02-26T05:40:38;5.00;;;3.22;;
48018;SDS011;33786;48.690;9.562;2024-02-26T05:43:05;5.93;;;3.58;;
48018;SDS011;33786;48.690;9.562;2024-02-26T05:45:32;6.63;;;3.20;;
48018;SDS011;33786;48.690;9.562;2024-02-26T05:47:59;7.13;;;4.47;;
48018;SDS011;33786;48.690;9.562;2024-02-26T05:50:26;6.05;;;3.97;;
48018;SDS011;33786;48.690;9.562;2024-02-26T05:52:53;5.35;;;3.33;;
48018;SDS011;33786;48.690;9.562;2024-02-26T05:55:20;7.15;;;3.42;;
48018;SDS011;33786;48.690;9.562;2024-02-26T05:57:47;9.02;;;5.07;;
48018;SDS011;33786;48.690;9.562;2024-02-26T06:00:15;10.00;;;5.53;;
48018;SDS011;33786;48.690;9.562;2024-02-26T06:02:43;6.95;;;4.57;;
48018;SDS011;33786;48.690;9.562;2024-02-26T06:05:11;7.30;;;4.68;;
48018;SDS011;33786;48.690;9.562;2024-02-26T06:07:38;8.93;;;5.13;;
48018;SDS011;33786;48.690;9.562;2024-02-26T06:10:05;6.78;;;4.07;;
48018;SDS011;33786;48.690;9.562;2024-02-26T06:12:34;5.68;;;4.07;;
48018;SDS011;33786;48.690;9.562;2024-02-26T06:15:02;6.90;;;3.83;;
48018;SDS011;33786;48.690;9.562;2024-02-26T06:17:30;7.47;;;4.07;;
48018;SDS011;33786;48.690;9.562;2024-02-26T06:19:57;6.18;;;3.90;;
48018;SDS011;33786;48.690;9.562;2024-02-26T06:22:26;6.82;;;4.13;;
48018;SDS011;33786;48.690;9.562;2024-02-26T06:24:53;8.70;;;5.03;;
48018;SDS011;33786;48.690;9.562;2024-02-26T06:27:19;14.73;;;8.63;;
48018;SDS011;33786;48.690;9.562;2024-02-26T06:29:48;6.82;;;4.55;;
48018;SDS011;33786;48.690;9.562;2024-02-26T06:32:15;7.28;;;4.22;;
48018;SDS011;33786;48.690;9.562;2024-02-26T06:34:42;5.45;;;3.13;;
48018;SDS011;33786;48.690;9.562;2024-02-26T06:37:09;6.30;;;3.65;;
48018;SDS011;33786;48.690;9.562;2024-02-26T06:39:36;5.78;;;3.42;;
48018;SDS011;33786;48.690;9.562;2024-02-26T06:42:02;5.28;;;3.38;;
48018;SDS011;33786;48.690;9.562;2024-02-26T06:44:29;5.13;;;3.08;;
48018;SDS011;33786;48.690;9.562;2024-02-26T06:46:58;5.47;;;3.42;;
48018;SDS011;33786;48.690;9.562;2024-02-26T06:49:26;6.35;;;3.85;;
48018;SDS011;33786;48.690;9.562;2024-02-26T06:51:54;4.75;;;3.08;;
48018;SDS011;33786;48.690;9.562;2024-02-26T06:54:21;6.13;;;3.67;;
48018;SDS011;33786;48.690;9.562;2024-02-26T06:56:48;4.60;;;2.30;;
48018;SDS011;33786;48.690;9.562;2024-02-26T06:59:15;5.85;;;3.95;;
48018;SDS011;33786;48.690;9.562;2024-02-26T07:01:41;9.07;;;4.65;;
48018;SDS011;33786;48.690;9.562;2024-02-26T07:04:08;6.45;;;4.18;;
48018;SDS011;33786;48.690;9.562;2024-02-26T07:06:37;5.10;;;3.35;;
48018;SDS011;33786;48.690;9.562;2024-02-26T07:09:04;9.13;;;4.45;;
48018;SDS011;33786;48.690;9.562;2024-02-26T07:11:31;7.82;;;4.38;;
48018;SDS011;33786;48.690;9.562;2024-02-26T07:13:58;10.57;;;5.20;;
48018;SDS011;33786;48.690;9.562;2024-02-26T07:16:25;12.02;;;6.57;;
48018;SDS011;33786;48.690;9.562;2024-02-26T07:18:53;9.88;;;6.20;;
48018;SDS011;33786;48.690;9.562;2024-02-26T07:21:20;9.45;;;5.85;;
48018;SDS011;33786;48.690;9.562;2024-02-26T07:23:47;9.43;;;5.30;;
48018;SDS011;33786;48.690;9.562;2024-02-26T07:26:14;5.63;;;4.28;;
48018;SDS011;33786;48.690;9.562;2024-02-26T07:28:41;9.80;;;4.13;;
48018;SDS011;33786;48.690;9.562;2024-02-26T07:31:08;6.72;;;3.88;;
48018;SDS011;33786;48.690;9.562;2024-02-26T07:33:34;6.35;;;4.10;;
48018;SDS011;33786;48.690;9.562;2024-02-26T07:36:01;6.35;;;4.05;;
48018;SDS011;33786;48.690;9.562;2024-02-26T07:38:28;6.93;;;4.00;;
48018;SDS011;33786;48.690;9.562;2024-02-26T07:41:08;6.97;;;3.85;;
48018;SDS011;33786;48.690;9.562;2024-02-26T07:43:35;6.60;;;3.70;;
48018;SDS011;33786;48.690;9.562;2024-02-26T07:46:02;6.97;;;3.70;;
48018;SDS011;33786;48.690;9.562;2024-02-26T07:48:29;7.47;;;3.60;;
48018;SDS011;33786;48.690;9.562;2024-02-26T07:50:56;4.88;;;3.58;;
48018;SDS011;33786;48.690;9.562;2024-02-26T07:53:25;8.43;;;4.25;;
48018;SDS011;33786;48.690;9.562;2024-02-26T07:55:52;7.22;;;3.70;;
48018;SDS011;33786;48.690;9.562;2024-02-26T07:58:19;7.43;;;3.55;;
48018;SDS011;33786;48.690;9.562;2024-02-26T08:00:46;5.00;;;3.35;;
48018;SDS011;33786;48.690;9.562;2024-02-26T08:03:13;8.13;;;4.10;;
48018;SDS011;33786;48.690;9.562;2024-02-26T08:05:42;5.57;;;3.72;;
48018;SDS011;33786;48.690;9.562;2024-02-26T08:08:10;7.10;;;3.90;;
48018;SDS011;33786;48.690;9.562;2024-02-26T08:10:37;7.72;;;4.72;;
48018;SDS011;33786;48.690;9.562;2024-02-26T08:13:04;6.95;;;3.63;;
48018;SDS011;33786;48.690;9.562;2024-02-26T08:15:34;5.68;;;4.18;;
48018;SDS011;33786;48.690;9.562;2024-02-26T08:18:01;7.28;;;3.70;;
48018;SDS011;33786;48.690;9.562;2024-02-26T08:20:30;5.30;;;3.30;;
48018;SDS011;33786;48.690;9.562;2024-02-26T08:22:57;6.15;;;3.67;;
48018;SDS011;33786;48.690;9.562;2024-02-26T08:25:24;6.10;;;3.47;;
48018;SDS011;33786;48.690;9.562;2024-02-26T08:27:52;7.72;;;4.13;;
48018;SDS011;33786;48.690;9.562;2024-02-26T08:30:19;4.68;;;2.85;;
48018;SDS011;33786;48.690;9.562;2024-02-26T08:32:47;7.30;;;3.85;;
48018;SDS011;33786;48.690;9.562;2024-02-26T08:35:17;4.97;;;3.45;;
48018;SDS011;33786;48.690;9.562;2024-02-26T08:37:45;5.88;;;4.10;;
48018;SDS011;33786;48.690;9.562;2024-02-26T08:40:13;7.28;;;4.25;;
48018;SDS011;33786;48.690;9.562;2024-02-26T08:42:41;8.23;;;3.65;;
48018;SDS011;33786;48.690;9.562;2024-02-26T08:45:08;6.45;;;3.60;;
48018;SDS011;33786;48.690;9.562;2024-02-26T08:47:35;7.60;;;4.07;;
48018;SDS011;33786;48.690;9.562;2024-02-26T08:50:03;6.80;;;3.70;;
48018;SDS011;33786;48.690;9.562;2024-02-26T08:52:31;8.27;;;4.07;;
48018;SDS011;33786;48.690;9.562;2024-02-26T08:54:57;5.03;;;3.65;;
48018;SDS011;33786;48.690;9.562;2024-02-26T08:57:24;7.07;;;4.22;;
48018;SDS011;33786;48.690;9.562;2024-02-26T08:59:54;8.30;;;5.13;;
48018;SDS011;33786;48.690;9.562;2024-02-26T09:02:20;6.43;;;3.95;;
48018;SDS011;33786;48.690;9.562;2024-02-26T09:04:47;6.78;;;4.13;;
48018;SDS011;33786;48.690;9.562;2024-02-26T09:07:14;7.43;;;3.80;;
48018;SDS011;33786;48.690;9.562;2024-02-26T09:09:41;5.50;;;3.55;;
48018;SDS011;33786;48.690;9.562;2024-02-26T09:12:08;8.38;;;4.47;;
48018;SDS011;33786;48.690;9.562;2024-02-26T09:14:35;7.40;;;4.15;;
48018;SDS011;33786;48.690;9.562;2024-02-26T09:17:02;7.57;;;3.97;;
48018;SDS011;33786;48.690;9.562;2024-02-26T09:19:29;6.95;;;4.68;;
48018;SDS011;33786;48.690;9.562;2024-02-26T09:21:57;6.85;;;3.72;;
48018;SDS011;33786;48.690;9.562;2024-02-26T09:24:24;7.45;;;4.40;;
48018;SDS011;33786;48.690;9.562;2024-02-26T09:26:52;7.20;;;4.10;;
48018;SDS011;33786;48.690;9.562;2024-02-26T09:29:19;7.90;;;4.35;;
48018;SDS011;33786;48.690;9.562;2024-02-26T09:31:46;8.32;;;4.47;;
48018;SDS011;33786;48.690;9.562;2024-02-26T09:34:15;6.70;;;3.33;;
48018;SDS011;33786;48.690;9.562;2024-02-26T09:36:43;5.38;;;3.90;;
48018;SDS011;33786;48.690;9.562;2024-02-26T09:39:10;5.38;;;3.63;;
48018;SDS011;33786;48.690;9.562;2024-02-26T09:41:38;10.00;;;3.70;;
48018;SDS011;33786;48.690;9.562;2024-02-26T09:44:05;5.97;;;3.35;;
48018;SDS011;33786;48.690;9.562;2024-02-26T09:46:33;7.50;;;3.42;;
48018;SDS011;33786;48.690;9.562;2024-02-26T09:49:00;6.05;;;3.15;;
48018;SDS011;33786;48.690;9.562;2024-02-26T09:51:28;9.85;;;3.88;;
48018;SDS011;33786;48.690;9.562;2024-02-26T09:53:55;6.43;;;3.25;;
48018;SDS011;33786;48.690;9.562;2024-02-26T09:56:25;5.00;;;3.30;;
48018;SDS011;33786;48.690;9.562;2024-02-26T09:58:53;4.70;;;3.08;;
48018;SDS011;33786;48.690;9.562;2024-02-26T10:01:22;8.38;;;3.75;;
48018;SDS011;33786;48.690;9.562;2024-02-26T10:04:00;8.88;;;3.83;;
48018;SDS011;33786;48.690;9.562;2024-02-26T10:06:27;7.47;;;4.68;;
48018;SDS011;33786;48.690;9.562;2024-02-26T10:08:55;7.90;;;3.92;;
48018;SDS011;33786;48.690;9.562;2024-02-26T10:11:25;9.30;;;4.03;;
48018;SDS011;33786;48.690;9.562;2024-02-26T10:13:53;7.18;;;4.57;;
48018;SDS011;33786;48.690;9.562;2024-02-26T10:16:20;6.68;;;3.90;;
48018;SDS011;33786;48.690;9.562;2024-02-26T10:18:47;8.13;;;3.88;;
48018;SDS011;33786;48.690;9.562;2024-02-26T10:21:18;8.63;;;4.68;;
48018;SDS011;33786;48.690;9.562;2024-02-26T10:23:49;6.53;;;3.83;;
48018;SDS011;33786;48.690;9.562;2024-02-26T10:26:17;5.45;;;4.03;;
48018;SDS011;33786;48.690;9.562;2024-02-26T10:28:44;7.05;;;3.42;;
48018;SDS011;33786;48.690;9.562;2024-02-26T10:31:14;5.03;;;3.47;;
48018;SDS011;33786;48.690;9.562;2024-02-26T10:33:41;5.75;;;3.85;;
48018;SDS011;33786;48.690;9.562;2024-02-26T10:36:09;6.00;;;3.53;;
48018;SDS011;33786;48.690;9.562;2024-02-26T10:38:37;5.35;;;3.28;;
48018;SDS011;33786;48.690;9.562;2024-02-26T10:41:04;3.67;;;2.90;;
48018;SDS011;33786;48.690;9.562;2024-02-26T10:43:33;4.43;;;2.72;;
48018;SDS011;33786;48.690;9.562;2024-02-26T10:45:59;4.35;;;2.42;;
48018;SDS011;33786;48.690;9.562;2024-02-26T10:48:26;3.85;;;2.13;;
48018;SDS011;33786;48.690;9.562;2024-02-26T10:50:54;4.75;;;2.40;;
48018;SDS011;33786;48.690;9.562;2024-02-26T10:53:22;4.63;;;2.05;;
48018;SDS011;33786;48.690;9.562;2024-02-26T10:56:03;4.78;;;2.22;;
48018;SDS011;33786;48.690;9.562;2024-02-26T10:58:34;3.83;;;1.95;;
48018;SDS011;33786;48.690;9.562;2024-02-26T11:01:02;5.47;;;1.90;;
48018;SDS011;33786;48.690;9.562;2024-02-26T11:03:31;7.00;;;2.10;;
48018;SDS011;33786;48.690;9.562;2024-02-26T11:06:01;3.30;;;1.90;;
48018;SDS011;33786;48.690;9.562;2024-02-26T11:08:30;6.72;;;2.55;;
48018;SDS011;33786;48.690;9.562;2024-02-26T11:10:58;4.32;;;2.70;;
48018;SDS011;33786;48.690;9.562;2024-02-26T11:13:26;4.22;;;2.75;;
48018;SDS011;33786;48.690;9.562;2024-02-26T11:15:57;4.18;;;2.63;;
48018;SDS011;33786;48.690;9.562;2024-02-26T11:18:28;5.10;;;2.58;;
48018;SDS011;33786;48.690;9.562;2024-02-26T11:20:57;6.57;;;3.08;;
48018;SDS011;33786;48.690;9.562;2024-02-26T11:23:27;5.63;;;2.80;;
48018;SDS011;33786;48.690;9.562;2024-02-26T11:25:54;3.40;;;2.10;;
48018;SDS011;33786;48.690;9.562;2024-02-26T11:28:26;4.18;;;2.58;;
48018;SDS011;33786;48.690;9.562;2024-02-26T11:30:54;5.15;;;2.70;;
48018;SDS011;33786;48.690;9.562;2024-02-26T11:33:21;4.82;;;2.78;;
48018;SDS011;33786;48.690;9.562;2024-02-26T11:35:49;6.35;;;2.65;;
48018;SDS011;33786;48.690;9.562;2024-02-26T11:38:22;4.10;;;2.30;;
48018;SDS011;33786;48.690;9.562;2024-02-26T11:40:50;5.03;;;2.20;;
48018;SDS011;33786;48.690;9.562;2024-02-26T11:43:23;7.07;;;2.38;;
48018;SDS011;33786;48.690;9.562;2024-02-26T11:51:55;3.75;;;2.60;;
48018;SDS011;33786;48.690;9.562;2024-02-26T11:54:39;4.55;;;2.15;;
48018;SDS011;33786;48.690;9.562;2024-02-26T12:07:39;4.88;;;2.25;;
48018;SDS011;33786;48.690;9.562;2024-02-26T12:13:12;3.85;;;2.42;;
48018;SDS011;33786;48.690;9.562;2024-02-26T12:15:46;3.78;;;2.05;;
48018;SDS011;33786;48.690;9.562;2024-02-26T12:20:58;3.25;;;1.92;;
48018;SDS011;33786;48.690;9.562;2024-02-26T12:23:27;3.13;;;1.75;;
48018;SDS011;33786;48.690;9.562;2024-02-26T12:26:00;3.17;;;1.83;;
48018;SDS011;33786;48.690;9.562;2024-02-26T12:28:32;4.13;;;2.22;;
48018;SDS011;33786;48.690;9.562;2024-02-26T12:30:59;5.00;;;2.35;;
48018;SDS011;33786;48.690;9.562;2024-02-26T12:33:27;6.05;;;2.70;;
48018;SDS011;33786;48.690;9.562;2024-02-26T12:35:55;4.68;;;2.67;;
48018;SDS011;33786;48.690;9.562;2024-02-26T12:38:25;5.63;;;3.05;;
48018;SDS011;33786;48.690;9.562;2024-02-26T12:40:53;6.38;;;3.33;;
48018;SDS011;33786;48.690;9.562;2024-02-26T12:43:20;5.32;;;2.80;;
48018;SDS011;33786;48.690;9.562;2024-02-26T12:45:47;5.20;;;2.78;;
48018;SDS011;33786;48.690;9.562;2024-02-26T12:48:14;8.27;;;2.25;;
48018;SDS011;33786;48.690;9.562;2024-02-26T12:50:45;5.82;;;3.08;;
48018;SDS011;33786;48.690;9.562;2024-02-26T12:53:14;4.50;;;2.15;;
48018;SDS011;33786;48.690;9.562;2024-02-26T12:55:41;3.63;;;2.20;;
48018;SDS011;33786;48.690;9.562;2024-02-26T12:58:09;3.83;;;2.17;;
48018;SDS011;33786;48.690;9.562;2024-02-26T13:00:36;3.38;;;2.00;;
48018;SDS011;33786;48.690;9.562;2024-02-26T13:03:04;3.65;;;2.08;;
48018;SDS011;33786;48.690;9.562;2024-02-26T13:05:31;5.43;;;2.20;;
48018;SDS011;33786;48.690;9.562;2024-02-26T13:07:59;4.30;;;1.98;;
48018;SDS011;33786;48.690;9.562;2024-02-26T13:10:26;4.05;;;1.80;;
48018;SDS011;33786;48.690;9.562;2024-02-26T13:12:53;5.07;;;2.22;;
48018;SDS011;33786;48.690;9.562;2024-02-26T13:15:21;7.75;;;4.32;;
48018;SDS011;33786;48.690;9.562;2024-02-26T13:17:49;7.07;;;4.00;;
48018;SDS011;33786;48.690;9.562;2024-02-26T13:20:29;7.55;;;3.50;;
48018;SDS011;33786;48.690;9.562;2024-02-26T13:23:03;6.07;;;3.70;;
48018;SDS011;33786;48.690;9.562;2024-02-26T13:25:32;4.37;;;2.87;;
48018;SDS011;33786;48.690;9.562;2024-02-26T13:28:06;5.25;;;2.97;;
48018;SDS011;33786;48.690;9.562;2024-02-26T13:30:49;7.53;;;4.47;;
48018;SDS011;33786;48.690;9.562;2024-02-26T13:33:18;5.95;;;3.13;;
48018;SDS011;33786;48.690;9.562;2024-02-26T13:35:45;4.47;;;2.40;;
48018;SDS011;33786;48.690;9.562;2024-02-26T13:38:12;4.65;;;2.95;;
48018;SDS011;33786;48.690;9.562;2024-02-26T13:40:39;4.00;;;2.42;;
48018;SDS011;33786;48.690;9.562;2024-02-26T13:43:06;4.28;;;2.30;;
48018;SDS011;33786;48.690;9.562;2024-02-26T13:45:34;4.03;;;2.40;;
48018;SDS011;33786;48.690;9.562;2024-02-26T13:48:03;5.82;;;2.65;;
48018;SDS011;33786;48.690;9.562;2024-02-26T13:53:05;4.90;;;2.40;;
48018;SDS011;33786;48.690;9.562;2024-02-26T13:55:32;5.47;;;2.55;;
48018;SDS011;33786;48.690;9.562;2024-02-26T13:57:59;6.13;;;3.13;;
48018;SDS011;33786;48.690;9.562;2024-02-26T14:00:28;4.45;;;2.55;;
48018;SDS011;33786;48.690;9.562;2024-02-26T14:03:00;4.32;;;2.67;;
48018;SDS011;33786;48.690;9.562;2024-02-26T14:05:28;3.53;;;2.15;;
48018;SDS011;33786;48.690;9.562;2024-02-26T14:07:55;4.55;;;2.60;;
48018;SDS011;33786;48.690;9.562;2024-02-26T14:10:22;4.82;;;2.50;;
48018;SDS011;33786;48.690;9.562;2024-02-26T14:12:49;4.60;;;2.38;;
48018;SDS011;33786;48.690;9.562;2024-02-26T14:15:16;4.20;;;2.60;;
48018;SDS011;33786;48.690;9.562;2024-02-26T14:17:43;5.30;;;2.67;;
48018;SDS011;33786;48.690;9.562;2024-02-26T14:20:11;3.65;;;2.28;;
48018;SDS011;33786;48.690;9.562;2024-02-26T14:22:38;4.90;;;2.90;;
48018;SDS011;33786;48.690;9.562;2024-02-26T14:25:05;5.45;;;2.83;;
48018;SDS011;33786;48.690;9.562;2024-02-26T14:27:32;6.13;;;2.58;;
48018;SDS011;33786;48.690;9.562;2024-02-26T14:29:59;4.05;;;2.78;;
48018;SDS011;33786;48.690;9.562;2024-02-26T14:32:26;6.57;;;3.05;;
48018;SDS011;33786;48.690;9.562;2024-02-26T14:34:55;5.00;;;2.58;;
48018;SDS011;33786;48.690;9.562;2024-02-26T14:37:22;4.57;;;2.75;;
48018;SDS011;33786;48.690;9.562;2024-02-26T14:39:49;6.88;;;3.28;;
48018;SDS011;33786;48.690;9.562;2024-02-26T14:42:18;3.95;;;2.75;;
48018;SDS011;33786;48.690;9.562;2024-02-26T14:44:46;6.10;;;2.78;;
48018;SDS011;33786;48.690;9.562;2024-02-26T14:47:14;4.82;;;3.15;;
48018;SDS011;33786;48.690;9.562;2024-02-26T14:49:41;5.75;;;3.42;;
48018;SDS011;33786;48.690;9.562;2024-02-26T14:52:08;6.13;;;3.20;;
48018;SDS011;33786;48.690;9.562;2024-02-26T14:54:35;4.90;;;3.08;;
48018;SDS011;33786;48.690;9.562;2024-02-26T14:57:05;6.18;;;3.63;;
48018;SDS011;33786;48.690;9.562;2024-02-26T14:59:35;6.32;;;3.30;;
48018;SDS011;33786;48.690;9.562;2024-02-26T15:02:03;5.05;;;2.85;;
48018;SDS011;33786;48.690;9.562;2024-02-26T15:04:30;5.10;;;3.05;;
48018;SDS011;33786;48.690;9.562;2024-02-26T15:06:57;8.07;;;3.40;;
48018;SDS011;33786;48.690;9.562;2024-02-26T15:09:24;6.13;;;4.25;;
48018;SDS011;33786;48.690;9.562;2024-02-26T15:11:51;8.82;;;3.22;;
48018;SDS011;33786;48.690;9.562;2024-02-26T15:14:17;5.55;;;3.60;;
48018;SDS011;33786;48.690;9.562;2024-02-26T15:16:44;6.72;;;3.28;;